createdAt,value
2023-01-19T00:00:10.887Z,6.15
2023-01-19T00:05:17.981Z,6.39
2023-01-19T00:08:02.338Z,6.23
2023-01-19T00:10:36.166Z,6.23
2023-01-19T00:13:29.583Z,6.82
2023-01-19T00:16:18.531Z,7.01
2023-01-19T00:21:42.991Z,7.10
2023-01-19T00:24:12.491Z,7.18
2023-01-19T00:26:53.625Z,7.11
2023-01-19T00:29:35.328Z,6.94
2023-01-19T00:32:06.254Z,6.52
2023-01-19T00:34:43.605Z,6.60
2023-01-19T00:37:17.421Z,6.43
2023-01-19T00:39:47.410Z,6.73
2023-01-19T00:42:34.242Z,6.52
2023-01-19T00:45:19.709Z,6.91
2023-01-19T00:47:48.402Z,6.35
2023-01-19T00:50:21.427Z,6.17
2023-01-19T00:52:52.894Z,7.22
2023-01-19T00:55:25.919Z,7.95
2023-01-19T01:00:36.125Z,7.04
2023-01-19T01:03:10.587Z,6.82
2023-01-19T01:05:50.370Z,6.48
2023-01-19T01:08:17.247Z,6.78
2023-01-19T01:10:46.569Z,6.50
2023-01-19T01:13:20.460Z,6.68
2023-01-19T01:15:52.465Z,6.74
2023-01-19T01:18:19.430Z,6.42
2023-01-19T01:21:00.588Z,6.73
2023-01-19T01:23:30.331Z,6.58
2023-01-19T01:26:00.145Z,6.37
2023-01-19T01:28:57.550Z,6.30
2023-01-19T01:31:50.910Z,6.39
2023-01-19T01:34:23.343Z,6.39
2023-01-19T01:36:55.070Z,6.59
2023-01-19T01:39:22.667Z,6.96
2023-01-19T01:42:15.875Z,7.02
2023-01-19T01:45:41.869Z,6.57
2023-01-19T01:48:32.599Z,6.58
2023-01-19T01:51:15.792Z,6.16
2023-01-19T01:53:45.490Z,6.15
2023-01-19T01:56:20.337Z,5.97
2023-01-19T01:59:04.829Z,5.89
2023-01-19T02:01:42.856Z,5.68
2023-01-19T02:04:22.704Z,5.57
2023-01-19T02:06:49.373Z,5.54
2023-01-19T02:09:32.827Z,5.40
2023-01-19T02:12:04.566Z,5.29
2023-01-19T02:14:31.258Z,5.65
2023-01-19T02:16:58.064Z,5.46
2023-01-19T02:19:35.381Z,6.14
2023-01-19T02:22:19.237Z,6.09
2023-01-19T02:24:46.253Z,5.93
2023-01-19T02:27:13.294Z,5.95
2023-01-19T02:29:49.230Z,5.86
2023-01-19T02:32:18.752Z,5.73
2023-01-19T02:34:48.600Z,6.39
2023-01-19T02:37:18.571Z,6.13
2023-01-19T02:40:04.628Z,5.85
2023-01-19T02:43:14.890Z,5.68
2023-01-19T02:46:09.594Z,5.53
2023-01-19T02:48:47.709Z,5.46
2023-01-19T02:51:31.312Z,5.45
2023-01-19T02:54:23.627Z,5.30
2023-01-19T02:57:27.430Z,5.36
2023-01-19T03:00:26.759Z,5.42
2023-01-19T03:03:15.941Z,5.54
2023-01-19T03:06:46.817Z,5.55
2023-01-19T03:09:28.920Z,5.46
2023-01-19T03:12:23.835Z,5.36
2023-01-19T03:14:53.887Z,5.29
2023-01-19T03:17:21.782Z,5.37
2023-01-19T03:22:42.336Z,6.55
2023-01-19T03:25:27.782Z,5.93
2023-01-19T03:27:57.492Z,5.66
2023-01-19T03:30:35.198Z,5.54
2023-01-19T03:33:15.653Z,5.41
2023-01-19T03:35:50.499Z,5.39
2023-01-19T03:38:21.937Z,5.40
2023-01-19T03:40:49.544Z,5.43
2023-01-19T03:43:30.855Z,5.47
2023-01-19T03:45:57.944Z,5.42
2023-01-19T03:51:14.166Z,5.25
2023-01-19T03:53:54.796Z,5.40
2023-01-19T03:59:27.021Z,5.31
2023-01-19T04:02:14.310Z,5.34
2023-01-19T04:04:56.485Z,5.46
2023-01-19T04:07:33.446Z,5.40
2023-01-19T04:10:08.333Z,5.28
2023-01-19T04:12:57.661Z,5.42
2023-01-19T04:15:31.252Z,5.37
2023-01-19T04:17:59.201Z,5.35
2023-01-19T04:20:28.841Z,5.30
2023-01-19T04:25:44.489Z,5.18
2023-01-19T04:30:56.226Z,5.30
2023-01-19T04:33:27.256Z,5.50
2023-01-19T04:36:02.892Z,5.68
2023-01-19T04:38:29.749Z,5.62
2023-01-19T04:41:08.807Z,5.62
2023-01-19T04:43:49.660Z,5.53
2023-01-19T04:49:20.270Z,5.46
2023-01-19T04:52:14.881Z,7.45
2023-01-19T04:54:44.136Z,6.78
2023-01-19T04:57:18.522Z,6.92
2023-01-19T04:59:51.686Z,6.53
2023-01-19T05:02:18.484Z,5.86
2023-01-19T05:04:45.064Z,5.61
2023-01-19T05:07:34.668Z,5.75
2023-01-19T05:10:07.692Z,6.59
2023-01-19T05:13:13.339Z,5.94
2023-01-19T05:15:38.771Z,5.77
2023-01-19T05:18:05.404Z,5.49
2023-01-19T05:20:31.971Z,5.27
2023-01-19T05:22:59.025Z,5.13
2023-01-19T05:25:25.863Z,5.23
2023-01-19T05:27:52.399Z,5.54
2023-01-19T05:30:19.040Z,7.47
2023-01-19T05:32:48.365Z,7.36
2023-01-19T05:35:31.306Z,5.98
2023-01-19T05:38:02.034Z,5.66
2023-01-19T05:40:38.551Z,5.84
2023-01-19T05:43:05.516Z,5.66
2023-01-19T05:45:41.409Z,5.55
2023-01-19T05:48:11.078Z,5.49
2023-01-19T05:50:40.347Z,5.44
2023-01-19T05:53:06.960Z,5.29
2023-01-19T05:55:36.448Z,5.44
2023-01-19T05:58:03.966Z,5.33
2023-01-19T06:00:30.542Z,5.42
2023-01-19T06:03:03.663Z,5.31
2023-01-19T06:05:44.961Z,6.35
2023-01-19T06:08:11.495Z,6.88
2023-01-19T06:10:38.141Z,6.37
2023-01-19T06:13:04.752Z,6.04
2023-01-19T06:15:35.422Z,5.75
2023-01-19T06:18:02.014Z,5.69
2023-01-19T06:20:48.088Z,5.74
2023-01-19T06:23:18.025Z,5.79
2023-01-19T06:25:46.669Z,5.74
2023-01-19T06:28:26.403Z,5.76
2023-01-19T06:31:04.510Z,5.64
2023-01-19T06:33:36.813Z,5.63
2023-01-19T06:36:04.053Z,5.81
2023-01-19T06:38:30.657Z,5.67
2023-01-19T06:40:58.900Z,5.48
2023-01-19T06:43:26.908Z,5.46
2023-01-19T06:46:03.632Z,5.49
2023-01-19T06:48:37.129Z,5.53
2023-01-19T06:51:03.696Z,5.52
2023-01-19T06:53:37.967Z,5.47
2023-01-19T06:56:04.987Z,5.48
2023-01-19T07:01:21.032Z,5.53
2023-01-19T07:03:52.007Z,5.46
2023-01-19T07:06:20.875Z,5.47
2023-01-19T07:09:08.602Z,5.49
2023-01-19T07:11:35.041Z,5.50
2023-01-19T07:14:02.783Z,5.45
2023-01-19T07:16:35.051Z,5.48
2023-01-19T07:19:05.803Z,5.40
2023-01-19T07:21:38.591Z,5.38
2023-01-19T07:24:10.043Z,5.43
2023-01-19T07:27:00.701Z,5.47
2023-01-19T07:29:50.976Z,5.55
2023-01-19T07:32:32.931Z,5.54
2023-01-19T07:34:59.480Z,5.57
2023-01-19T07:37:34.605Z,5.63
2023-01-19T07:40:07.688Z,6.10
2023-01-19T07:42:54.782Z,6.47
2023-01-19T07:45:23.808Z,6.68
2023-01-19T07:47:50.425Z,6.33
2023-01-19T07:50:17.975Z,6.22
2023-01-19T07:52:44.504Z,6.06
2023-01-19T07:55:11.099Z,6.32
2023-01-19T07:57:52.589Z,6.57
2023-01-19T08:00:20.742Z,7.27
2023-01-19T08:02:57.199Z,7.19
2023-01-19T08:05:34.293Z,6.76
2023-01-19T08:08:02.282Z,6.50
2023-01-19T08:10:34.871Z,6.38
2023-01-19T08:13:11.503Z,6.19
2023-01-19T08:15:58.781Z,6.07
2023-01-19T08:18:36.458Z,6.43
2023-01-19T08:21:08.151Z,7.04
2023-01-19T08:23:34.936Z,6.32
2023-01-19T08:26:17.853Z,6.06
2023-01-19T08:28:52.055Z,6.12
2023-01-19T08:31:28.290Z,6.06
2023-01-19T08:33:57.814Z,5.94
2023-01-19T08:36:24.724Z,6.78
2023-01-19T08:38:59.544Z,6.80
2023-01-19T08:41:28.492Z,6.35
2023-01-19T08:43:57.958Z,6.23
2023-01-19T08:46:24.580Z,6.22
2023-01-19T08:48:51.290Z,6.89
2023-01-19T08:51:25.963Z,7.36
2023-01-19T08:54:01.056Z,7.02
2023-01-19T08:59:20.975Z,6.08
2023-01-19T09:02:03.153Z,5.75
2023-01-19T09:04:30.459Z,5.69
2023-01-19T09:06:57.277Z,5.77
2023-01-19T09:09:36.016Z,5.86
2023-01-19T09:12:02.734Z,5.94
2023-01-19T09:14:41.500Z,6.00
2023-01-19T09:17:13.931Z,5.87
2023-01-19T09:19:41.299Z,5.86
2023-01-19T09:22:12.906Z,5.90
2023-01-19T09:24:42.019Z,5.92
2023-01-19T09:27:11.409Z,5.92
2023-01-19T09:29:37.980Z,6.05
2023-01-19T09:32:04.843Z,6.07
2023-01-19T09:34:32.869Z,6.69
2023-01-19T09:37:13.554Z,6.43
2023-01-19T09:39:40.331Z,6.53
2023-01-19T09:42:42.743Z,6.65
2023-01-19T09:45:48.805Z,6.70
2023-01-19T09:48:44.440Z,6.78
2023-01-19T09:51:26.343Z,6.66
2023-01-19T09:54:25.670Z,7.60
2023-01-19T09:57:09.604Z,7.41
2023-01-19T09:59:39.663Z,7.31
2023-01-19T10:02:24.700Z,8.05
2023-01-19T10:05:09.093Z,7.81
2023-01-19T10:08:27.799Z,7.46
2023-01-19T10:10:58.430Z,7.57
2023-01-19T10:14:11.276Z,7.50
2023-01-19T10:16:51.363Z,7.84
2023-01-19T10:19:39.219Z,7.82
2023-01-19T10:22:29.948Z,7.65
2023-01-19T10:25:01.396Z,7.41
2023-01-19T10:27:40.205Z,7.15
2023-01-19T10:30:08.825Z,7.87
2023-01-19T10:32:41.802Z,8.25
2023-01-19T10:35:31.755Z,7.88
2023-01-19T10:38:05.848Z,7.66
2023-01-19T10:40:39.300Z,7.75
2023-01-19T10:43:33.797Z,7.53
2023-01-19T10:46:21.907Z,7.47
2023-01-19T10:48:53.666Z,7.64
2023-01-19T10:51:23.176Z,8.44
2023-01-19T10:54:02.060Z,7.61
2023-01-19T10:56:39.447Z,7.75
2023-01-19T10:59:38.709Z,8.35
2023-01-19T11:02:26.599Z,8.20
2023-01-19T11:05:05.319Z,7.97
2023-01-19T11:07:35.171Z,7.65
2023-01-19T11:10:32.380Z,8.32
2023-01-19T11:13:10.485Z,8.09
2023-01-19T11:15:56.385Z,8.39
2023-01-19T11:18:34.424Z,8.64
2023-01-19T11:21:08.061Z,8.60
2023-01-19T11:23:42.153Z,8.59
2023-01-19T11:26:14.852Z,8.62
2023-01-19T11:29:06.172Z,9.08
2023-01-19T11:31:35.612Z,8.63
2023-01-19T11:34:05.657Z,8.42
2023-01-19T11:36:38.398Z,8.54
2023-01-19T11:39:24.651Z,7.76
2023-01-19T11:42:01.617Z,7.43
2023-01-19T11:44:35.285Z,7.77
2023-01-19T11:47:29.902Z,7.37
2023-01-19T11:50:33.461Z,7.75
2023-01-19T11:53:34.151Z,7.44
2023-01-19T11:56:11.093Z,7.66
2023-01-19T11:58:43.168Z,7.97
2023-01-19T12:01:26.702Z,7.42
2023-01-19T12:04:07.436Z,7.18
2023-01-19T12:06:40.307Z,7.35
2023-01-19T12:09:09.954Z,7.90
2023-01-19T12:12:07.715Z,7.80
2023-01-19T12:18:03.073Z,7.53
2023-01-19T12:21:03.928Z,7.55
2023-01-19T12:24:13.655Z,7.52
2023-01-19T12:27:09.019Z,7.94
2023-01-19T12:29:36.909Z,7.59
2023-01-19T12:32:38.095Z,7.90
2023-01-19T12:35:29.264Z,7.56
2023-01-19T12:37:59.552Z,7.61
2023-01-19T12:40:33.119Z,7.18
2023-01-19T12:43:05.682Z,7.78
2023-01-19T12:45:40.292Z,7.79
2023-01-19T12:48:32.336Z,7.75
2023-01-19T12:50:59.882Z,7.61
2023-01-19T12:53:33.550Z,7.60
2023-01-19T12:56:04.843Z,7.59
2023-01-19T12:58:34.109Z,7.47
2023-01-19T13:01:18.770Z,7.42
2023-01-19T13:04:12.904Z,7.63
2023-01-19T13:06:48.690Z,7.79
2023-01-19T13:09:45.093Z,8.17
2023-01-19T13:12:25.825Z,7.89
2023-01-19T13:15:35.100Z,7.79
2023-01-19T13:18:02.694Z,7.76
2023-01-19T13:20:44.214Z,7.70
2023-01-19T13:23:25.554Z,7.16
2023-01-19T13:26:04.389Z,7.75
2023-01-19T13:28:57.473Z,8.20
2023-01-19T13:31:28.096Z,7.77
2023-01-19T13:34:01.609Z,7.36
2023-01-19T13:36:35.578Z,7.06
2023-01-19T13:39:38.356Z,7.26
2023-01-19T13:42:13.441Z,7.94
2023-01-19T13:44:48.168Z,7.83
2023-01-19T13:47:22.619Z,7.88
2023-01-19T13:50:08.811Z,7.65
2023-01-19T13:52:43.656Z,7.28
2023-01-19T13:55:33.493Z,7.88
2023-01-19T13:58:00.110Z,6.91
2023-01-19T14:00:29.527Z,6.73
2023-01-19T14:03:00.381Z,7.84
2023-01-19T14:05:31.459Z,7.26
2023-01-19T14:08:09.888Z,7.22
2023-01-19T14:11:06.179Z,6.78
2023-01-19T14:13:46.072Z,7.36
2023-01-19T14:16:33.986Z,7.38
2023-01-19T14:19:10.142Z,7.98
2023-01-19T14:21:38.910Z,7.52
2023-01-19T14:24:30.429Z,7.19
2023-01-19T14:27:27.987Z,6.62
2023-01-19T14:29:54.591Z,6.38
2023-01-19T14:32:26.177Z,6.33
2023-01-19T14:35:33.123Z,7.71
2023-01-19T14:38:02.391Z,7.37
2023-01-19T14:43:19.326Z,7.36
2023-01-19T14:46:01.376Z,6.76
2023-01-19T14:48:28.020Z,6.25
2023-01-19T14:51:13.271Z,6.74
2023-01-19T14:53:48.492Z,6.67
2023-01-19T14:56:28.026Z,6.89
2023-01-19T14:58:59.495Z,6.64
2023-01-19T15:01:30.125Z,6.54
2023-01-19T15:03:57.196Z,6.90
2023-01-19T15:06:26.469Z,7.23
2023-01-19T15:09:00.718Z,6.78
2023-01-19T15:11:32.810Z,7.13
2023-01-19T15:13:59.775Z,6.88
2023-01-19T15:16:34.301Z,7.14
2023-01-19T15:19:17.802Z,7.23
2023-01-19T15:21:59.844Z,6.74
2023-01-19T15:24:29.459Z,6.84
2023-01-19T15:26:58.753Z,7.28
2023-01-19T15:29:26.260Z,7.85
2023-01-19T15:32:03.021Z,7.27
2023-01-19T15:34:49.801Z,6.13
2023-01-19T15:37:17.572Z,6.82
2023-01-19T15:39:50.356Z,7.21
2023-01-19T15:42:19.633Z,6.98
2023-01-19T15:44:48.744Z,6.70
2023-01-19T15:47:15.386Z,6.54
2023-01-19T15:49:41.968Z,6.52
2023-01-19T15:52:08.587Z,6.51
2023-01-19T15:54:44.114Z,7.06
2023-01-19T15:57:17.192Z,6.84
2023-01-19T15:59:44.579Z,6.84
2023-01-19T16:02:14.301Z,6.59
2023-01-19T16:04:48.045Z,6.68
2023-01-19T16:07:14.795Z,7.14
2023-01-19T16:09:42.244Z,7.22
2023-01-19T16:12:08.820Z,6.52
2023-01-19T16:14:42.808Z,6.55
2023-01-19T16:17:09.365Z,6.20
2023-01-19T16:19:35.948Z,5.71
2023-01-19T16:22:02.571Z,6.01
2023-01-19T16:24:34.767Z,6.85
2023-01-19T16:27:01.359Z,6.15
2023-01-19T16:29:34.292Z,6.47
2023-01-19T16:32:00.927Z,6.10
2023-01-19T16:34:30.743Z,5.54
2023-01-19T16:40:01.255Z,5.44
2023-01-19T16:42:28.199Z,5.53
2023-01-19T16:45:15.740Z,5.14
2023-01-19T16:47:42.310Z,5.34
2023-01-19T16:50:11.583Z,5.93
2023-01-19T16:52:41.114Z,5.46
2023-01-19T16:55:17.921Z,5.35
2023-01-19T16:57:50.266Z,5.49
2023-01-19T17:00:19.065Z,4.95
2023-01-19T17:02:48.935Z,4.72
2023-01-19T17:05:15.562Z,5.59
2023-01-19T17:07:42.213Z,4.93
2023-01-19T17:10:22.083Z,4.66
2023-01-19T17:12:49.041Z,5.02
2023-01-19T17:15:36.410Z,5.08
2023-01-19T17:18:11.046Z,4.83
2023-01-19T17:20:46.345Z,4.45
2023-01-19T17:23:20.307Z,5.60
2023-01-19T17:26:02.230Z,5.14
2023-01-19T17:28:32.124Z,5.19
2023-01-19T17:31:07.414Z,4.82
2023-01-19T17:33:35.092Z,4.78
2023-01-19T17:36:10.379Z,4.46
2023-01-19T17:38:42.616Z,4.61
2023-01-19T17:41:23.514Z,4.14
2023-01-19T17:44:00.102Z,4.52
2023-01-19T17:46:28.849Z,4.48
2023-01-19T17:49:02.903Z,3.62
2023-01-19T17:51:32.585Z,3.74
2023-01-19T17:54:04.257Z,3.84
2023-01-19T17:56:32.851Z,3.78
2023-01-19T17:59:00.001Z,3.99
2023-01-19T18:01:31.476Z,3.76
2023-01-19T18:03:58.745Z,3.67
2023-01-19T18:06:28.558Z,3.94
2023-01-19T18:08:58.334Z,3.99
2023-01-19T18:11:34.647Z,4.46
2023-01-19T18:14:03.966Z,4.40
2023-01-19T18:16:53.565Z,4.00
2023-01-19T18:19:30.379Z,4.74
2023-01-19T18:22:02.705Z,4.69
2023-01-19T18:24:29.275Z,5.11
2023-01-19T18:26:56.029Z,4.93
2023-01-19T18:29:22.927Z,5.26
2023-01-19T18:31:49.541Z,4.38
2023-01-19T18:34:16.101Z,4.63
2023-01-19T18:36:42.664Z,4.36
2023-01-19T18:39:09.283Z,4.06
2023-01-19T18:41:42.093Z,4.05
2023-01-19T18:44:12.753Z,4.41
2023-01-19T18:46:42.151Z,4.13
2023-01-19T18:49:09.039Z,4.23
2023-01-19T18:51:36.001Z,4.03
2023-01-19T18:54:02.634Z,4.06
2023-01-19T18:56:29.759Z,4.16
2023-01-19T18:58:57.574Z,3.77
2023-01-19T19:01:36.828Z,4.59
2023-01-19T19:04:03.556Z,3.90
2023-01-19T19:06:33.159Z,3.92
2023-01-19T19:08:59.773Z,4.51
2023-01-19T19:11:31.502Z,4.56
2023-01-19T19:14:02.461Z,4.86
2023-01-19T19:16:39.722Z,4.92
2023-01-19T19:19:24.228Z,4.47
2023-01-19T19:21:52.037Z,4.35
2023-01-19T19:24:20.139Z,4.90
2023-01-19T19:26:48.524Z,4.32
2023-01-19T19:29:17.632Z,4.36
2023-01-19T19:31:44.273Z,4.29
2023-01-19T19:34:15.125Z,5.03
2023-01-19T19:36:41.738Z,4.87
2023-01-19T19:39:14.324Z,4.17
2023-01-19T19:41:45.054Z,4.43
2023-01-19T19:44:11.757Z,4.04
2023-01-19T19:46:44.775Z,4.60
2023-01-19T19:49:11.441Z,5.19
2023-01-19T19:51:40.938Z,4.74
2023-01-19T19:54:07.556Z,5.23
2023-01-19T19:56:34.308Z,4.80
2023-01-19T19:59:03.547Z,4.55
2023-01-19T20:01:34.279Z,4.93
2023-01-19T20:04:12.238Z,4.27
2023-01-19T20:06:47.173Z,4.57
2023-01-19T20:09:15.506Z,4.79
2023-01-19T20:11:46.110Z,4.77
2023-01-19T20:14:16.671Z,4.43
2023-01-19T20:16:46.428Z,5.32
2023-01-19T20:19:15.498Z,5.29
2023-01-19T20:21:42.572Z,4.83
2023-01-19T20:24:16.178Z,4.18
2023-01-19T20:26:46.177Z,4.56
2023-01-19T20:29:19.273Z,5.17
2023-01-19T20:32:04.004Z,4.61
2023-01-19T20:34:37.237Z,4.95
2023-01-19T20:37:16.189Z,4.36
2023-01-19T20:39:52.684Z,4.56
2023-01-19T20:42:24.325Z,3.79
2023-01-19T20:44:52.781Z,3.87
2023-01-19T20:47:19.363Z,4.36
2023-01-19T20:50:09.640Z,4.68
2023-01-19T20:52:40.776Z,4.58
2023-01-19T20:55:18.595Z,4.80
2023-01-19T20:58:19.031Z,4.61
2023-01-19T21:00:52.721Z,4.23
2023-01-19T21:03:21.368Z,3.95
2023-01-19T21:05:59.526Z,4.13
2023-01-19T21:08:36.583Z,5.30
2023-01-19T21:11:03.900Z,4.47
2023-01-19T21:13:39.672Z,4.51
2023-01-19T21:16:12.201Z,4.35
2023-01-19T21:18:41.819Z,4.35
2023-01-19T21:21:28.402Z,4.34
2023-01-19T21:24:07.199Z,3.82
2023-01-19T21:26:45.791Z,3.80
2023-01-19T21:29:35.480Z,4.21
2023-01-19T21:32:15.171Z,4.27
2023-01-19T21:34:49.200Z,3.89
2023-01-19T21:37:18.489Z,3.86
2023-01-19T21:39:45.310Z,4.21
2023-01-19T21:42:15.488Z,3.92
2023-01-19T21:44:44.382Z,4.27
2023-01-19T21:47:12.229Z,3.85
2023-01-19T21:49:41.687Z,3.57
2023-01-19T21:52:09.696Z,3.85
2023-01-19T21:54:36.325Z,3.49
2023-01-19T21:57:02.949Z,3.99
2023-01-19T21:59:30.266Z,3.98
2023-01-19T22:02:05.672Z,3.82
2023-01-19T22:04:44.378Z,4.24
2023-01-19T22:07:19.916Z,4.38
2023-01-19T22:09:56.697Z,4.52
2023-01-19T22:12:32.955Z,4.59
2023-01-19T22:14:59.558Z,4.31
2023-01-19T22:17:28.875Z,4.20
2023-01-19T22:19:55.472Z,3.90
2023-01-19T22:22:30.797Z,3.98
2023-01-19T22:24:57.387Z,4.54
2023-01-19T22:27:32.834Z,4.40
2023-01-19T22:29:59.867Z,4.24
2023-01-19T22:32:26.478Z,4.91
2023-01-19T22:35:02.634Z,3.62
2023-01-19T22:37:30.687Z,4.16
2023-01-19T22:39:57.253Z,4.14
2023-01-19T22:42:34.392Z,4.13
2023-01-19T22:45:00.942Z,4.18
2023-01-19T22:47:29.736Z,4.22
2023-01-19T22:49:56.304Z,3.90
2023-01-19T22:52:22.927Z,4.31
2023-01-19T22:54:49.458Z,4.18
2023-01-19T22:57:15.988Z,3.84
2023-01-19T22:59:42.559Z,4.48
2023-01-19T23:02:09.210Z,5.13
2023-01-19T23:07:16.496Z,4.21
2023-01-19T23:09:48.273Z,4.49
2023-01-19T23:12:14.879Z,4.49
2023-01-19T23:14:50.332Z,4.57
2023-01-19T23:17:17.232Z,4.92
2023-01-19T23:19:52.669Z,4.62
2023-01-19T23:22:19.257Z,3.99
2023-01-19T23:24:45.792Z,3.98
2023-01-19T23:27:21.037Z,3.76
2023-01-19T23:29:50.815Z,4.13
2023-01-19T23:32:17.420Z,4.24
2023-01-19T23:34:44.063Z,4.40
2023-01-19T23:37:16.825Z,4.81
2023-01-19T23:39:43.386Z,4.02
2023-01-19T23:42:26.895Z,3.97
2023-01-19T23:44:58.473Z,5.00
2023-01-19T23:47:25.078Z,4.27
2023-01-19T23:49:55.406Z,4.43
2023-01-19T23:52:22.003Z,3.80
2023-01-19T23:55:02.013Z,4.21
2023-01-19T23:57:33.585Z,4.44
